Time;durP1;ratioP1;P1;durP2;ratioP2;P2;SDS_P1;SDS_P2;PMS_P1;PMS_P2;Temp;Humidity;BMP_temperature;BMP_pressure;BME280_temperature;BME280_humidity;BME280_pressure;Samples;Min_cycle;Max_cycle;Signal;HPM_P1;HPM_P2
2023/01/09 00:09:58;;;;;;;2.63;0.80;;;6.20;99.90;;;;;;6309872;22;20431;-92
2023/01/09 00:12:24;;;;;;;3.92;1.13;;;6.20;99.90;;;;;;6257783;22;20072;-90
2023/01/09 00:14:50;;;;;;;1.63;0.80;;;6.30;99.90;;;;;;6234712;22;20019;-92
2023/01/09 00:17:16;;;;;;;2.73;0.87;;;6.30;99.90;;;;;;6232629;22;20015;-94
2023/01/09 00:19:42;;;;;;;3.87;0.90;;;6.30;99.90;;;;;;6258689;22;20011;-93
2023/01/09 00:27:22;;;;;;;2.08;0.73;;;6.40;99.90;;;;;;6330190;22;20019;-96
2023/01/09 00:29:48;;;;;;;1.67;0.60;;;6.50;99.90;;;;;;6293727;22;20074;-95
2023/01/09 00:32:14;;;;;;;1.83;0.70;;;6.70;99.90;;;;;;6287070;22;20064;-95
2023/01/09 00:34:42;;;;;;;1.45;0.50;;;6.80;99.90;;;;;;6290395;22;20025;-96
2023/01/09 00:37:10;;;;;;;1.17;0.40;;;6.90;99.90;;;;;;6255597;22;20130;-91
2023/01/09 00:44:21;;;;;;;1.40;0.43;;;7.00;99.90;;;;;;6279500;22;20010;-96
2023/01/09 00:46:52;;;;;;;2.22;0.38;;;7.00;99.90;;;;;;6250513;22;20011;-90
2023/01/09 00:49:18;;;;;;;0.63;0.20;;;7.00;99.90;;;;;;6251624;22;20022;-93
2023/01/09 00:51:46;;;;;;;0.40;0.20;;;7.00;99.90;;;;;;6250906;22;20078;-92
2023/01/09 00:59:26;;;;;;;0.30;0.10;;;7.00;99.90;;;;;;6277210;22;20081;-93
2023/01/09 01:01:52;;;;;;;0.82;0.10;;;7.00;99.90;;;;;;6225249;22;20019;-90
2023/01/09 01:09:46;;;;;;;0.70;0.20;;;7.00;99.90;;;;;;6277385;22;20449;-87
2023/01/09 01:12:12;;;;;;;0.20;0.10;;;6.90;99.90;;;;;;6277061;22;20015;-90
2023/01/09 01:14:38;;;;;;;0.40;0.20;;;6.90;99.90;;;;;;6250310;22;20019;-92
2023/01/09 01:17:04;;;;;;;0.67;0.20;;;6.90;99.90;;;;;;6250065;22;20027;-94
2023/01/09 01:19:30;;;;;;;0.40;0.10;;;6.80;99.90;;;;;;6250193;22;20258;-88
2023/01/09 01:21:56;;;;;;;1.17;0.20;;;6.80;99.90;;;;;;6224599;22;20012;-90
2023/01/09 01:24:22;;;;;;;0.30;0.10;;;6.80;99.90;;;;;;6224884;22;20024;-88
2023/01/09 01:26:48;;;;;;;0.20;0.10;;;6.80;99.90;;;;;;6225030;22;20023;-88
2023/01/09 01:29:32;;;;;;;0.10;0.10;;;6.70;99.90;;;;;;6227042;22;20015;-89
2023/01/09 01:31:58;;;;;;;0.82;0.13;;;6.70;99.90;;;;;;6225167;22;20015;-87
2023/01/09 01:34:24;;;;;;;0.00;0.00;;;6.70;99.90;;;;;;6224430;22;20011;-91
2023/01/09 01:36:50;;;;;;;0.85;0.10;;;6.70;99.90;;;;;;6224889;22;20051;-94
2023/01/09 01:39:16;;;;;;;0.10;0.10;;;6.70;99.90;;;;;;6225901;22;20020;-88
2023/01/09 01:41:42;;;;;;;0.32;0.03;;;6.70;99.90;;;;;;6250666;22;20094;-96
2023/01/09 01:44:45;;;;;;;0.20;0.10;;;6.70;99.90;;;;;;6225270;22;20065;-95
2023/01/09 01:47:12;;;;;;;0.05;0.00;;;6.70;99.90;;;;;;6280058;22;20015;-89
2023/01/09 01:49:37;;;;;;;;;;;6.70;99.90;;;;;;6280373;22;20019;-92
2023/01/09 01:52:03;;;;;;;2.22;0.20;;;6.70;99.90;;;;;;6203073;22;19926;-92
2023/01/09 01:54:30;;;;;;;0.30;0.10;;;6.70;99.90;;;;;;6226962;22;20020;-96
2023/01/09 01:57:02;;;;;;;3.03;0.32;;;6.60;99.90;;;;;;6227084;22;20467;-94
2023/01/09 01:59:32;;;;;;;0.55;0.25;;;6.60;99.90;;;;;;6227051;22;20051;-96
2023/01/09 02:02:00;;;;;;;0.40;0.30;;;6.70;99.90;;;;;;6252263;22;20106;-96
2023/01/09 02:04:28;;;;;;;0.45;0.20;;;6.70;99.90;;;;;;6277562;22;20019;-90
2023/01/09 02:06:55;;;;;;;0.95;0.35;;;6.60;99.90;;;;;;6277777;22;20016;-96
2023/01/09 02:09:24;;;;;;;1.23;0.40;;;6.70;99.90;;;;;;6226898;22;20099;-96
2023/01/09 02:11:51;;;;;;;1.60;0.43;;;6.70;99.90;;;;;;6226730;22;20016;-89
2023/01/09 02:14:21;;;;;;;0.70;0.30;;;6.70;99.90;;;;;;6278327;22;20099;-91
2023/01/09 02:17:36;;;;;;;0.80;0.30;;;6.70;99.90;;;;;;6280905;22;20022;-95
2023/01/09 02:20:11;;;;;;;2.67;0.65;;;6.70;99.90;;;;;;6183360;22;20016;-91
2023/01/09 02:22:54;;;;;;;1.80;0.98;;;6.70;99.90;;;;;;6232208;22;20019;-89
2023/01/09 02:25:58;;;;;;;1.15;0.55;;;6.80;99.90;;;;;;6259805;22;20015;-95
2023/01/09 02:28:48;;;;;;;3.58;0.60;;;6.80;99.90;;;;;;6235749;22;20016;-93
2023/01/09 02:31:19;;;;;;;1.58;0.60;;;6.80;99.90;;;;;;6282285;22;20330;-88
2023/01/09 02:34:12;;;;;;;2.45;0.57;;;6.90;99.90;;;;;;6282493;22;20016;-96
2023/01/09 02:37:04;;;;;;;2.13;0.60;;;6.90;99.90;;;;;;6280347;22;20015;-95
2023/01/09 02:39:46;;;;;;;1.58;0.68;;;6.90;99.90;;;;;;6280336;22;20034;-91
2023/01/09 02:42:22;;;;;;;1.48;0.50;;;6.90;99.90;;;;;;6230809;22;20022;-96
2023/01/09 02:44:49;;;;;;;2.28;0.60;;;6.90;99.90;;;;;;6234642;22;20433;-88
2023/01/09 02:47:15;;;;;;;1.27;0.50;;;6.90;99.90;;;;;;6281502;22;20343;-88
2023/01/09 02:49:45;;;;;;;4.60;0.70;;;6.90;99.90;;;;;;6227742;22;20046;-94
2023/01/09 02:52:32;;;;;;;1.40;0.40;;;6.80;99.90;;;;;;6227912;22;20016;-96
2023/01/09 02:55:07;;;;;;;3.85;0.68;;;6.80;99.90;;;;;;6280089;22;20051;-90
2023/01/09 02:57:32;;;;;;;1.52;0.52;;;6.80;99.90;;;;;;6279251;22;20019;-96
2023/01/09 03:00:10;;;;;;;1.27;0.40;;;6.80;99.90;;;;;;6279647;22;20022;-89
2023/01/09 03:02:35;;;;;;;;;;;6.80;99.90;;;;;;6240018;22;20023;-96
2023/01/09 03:05:15;;;;;;;1.70;0.60;;;6.80;99.90;;;;;;6257478;22;19951;-96
2023/01/09 03:07:49;;;;;;;1.10;0.40;;;6.80;99.90;;;;;;6253451;22;20341;-96
2023/01/09 03:10:22;;;;;;;1.98;0.80;;;6.80;99.90;;;;;;6228325;22;20012;-96
2023/01/09 03:12:52;;;;;;;2.13;0.50;;;6.70;99.90;;;;;;6227307;22;20016;-96
2023/01/09 03:15:21;;;;;;;2.88;0.60;;;6.80;99.90;;;;;;6279218;22;20342;-95
2023/01/09 03:17:49;;;;;;;0.95;0.32;;;6.70;99.90;;;;;;6227595;22;20016;-94
2023/01/09 03:20:20;;;;;;;1.48;0.52;;;6.70;99.90;;;;;;6230378;22;20016;-94
2023/01/09 03:23:00;;;;;;;1.85;0.73;;;6.70;99.90;;;;;;6233590;22;20015;-92
2023/01/09 03:25:27;;;;;;;1.38;0.65;;;6.70;99.90;;;;;;6227517;22;20027;-93
2023/01/09 03:27:59;;;;;;;2.30;0.63;;;6.60;99.90;;;;;;6228220;22;20015;-88
2023/01/09 03:30:26;;;;;;;0.70;0.40;;;6.60;99.90;;;;;;6279162;22;20019;-91
2023/01/09 03:32:52;;;;;;;3.70;0.80;;;6.60;99.90;;;;;;6201478;22;20015;-96
2023/01/09 03:35:19;;;;;;;1.60;0.60;;;6.50;99.90;;;;;;6252959;22;20102;-89
2023/01/09 03:37:45;;;;;;;1.20;0.43;;;6.50;99.90;;;;;;6252556;22;20022;-89
2023/01/09 03:40:10;;;;;;;2.37;0.40;;;6.50;99.90;;;;;;6227259;22;20337;-96
2023/01/09 03:42:36;;;;;;;2.70;0.87;;;6.50;99.90;;;;;;6252611;22;20043;-92
2023/01/09 03:45:03;;;;;;;1.87;0.60;;;6.40;99.90;;;;;;6252067;22;20018;-91
2023/01/09 03:47:29;;;;;;;1.90;0.50;;;6.40;99.90;;;;;;6252179;22;20260;-91
2023/01/09 03:49:55;;;;;;;1.73;0.70;;;6.40;99.90;;;;;;6228624;22;20340;-91
2023/01/09 03:52:20;;;;;;;2.63;1.13;;;6.30;99.90;;;;;;6202314;22;20023;-96
2023/01/09 03:54:46;;;;;;;5.47;1.37;;;6.30;99.90;;;;;;6229783;22;20024;-88
2023/01/09 03:57:12;;;;;;;3.93;1.20;;;6.20;99.90;;;;;;6257389;22;20012;-90
2023/01/09 03:59:38;;;;;;;5.83;1.40;;;6.20;99.90;;;;;;6230846;22;20027;-93
2023/01/09 04:02:04;;;;;;;2.03;0.77;;;6.20;99.90;;;;;;6251985;22;20016;-88
2023/01/09 04:04:30;;;;;;;3.20;1.30;;;6.20;99.90;;;;;;6225381;22;20467;-95
2023/01/09 04:06:56;;;;;;;2.10;0.90;;;6.20;99.90;;;;;;6200686;22;20020;-95
2023/01/09 04:09:21;;;;;;;2.60;0.97;;;6.20;99.90;;;;;;6250638;22;20022;-91
2023/01/09 04:11:47;;;;;;;2.57;0.97;;;6.20;99.90;;;;;;6253158;22;20448;-95
2023/01/09 04:14:13;;;;;;;3.20;1.07;;;6.10;99.90;;;;;;6250985;22;20054;-91
2023/01/09 04:16:39;;;;;;;3.33;1.00;;;6.10;99.90;;;;;;6225825;22;20340;-95
2023/01/09 04:19:04;;;;;;;2.33;0.73;;;6.10;99.90;;;;;;6225826;22;20016;-95
2023/01/09 04:21:30;;;;;;;3.07;0.83;;;6.10;99.90;;;;;;6225705;22;20054;-91
2023/01/09 04:23:56;;;;;;;2.20;0.90;;;6.10;99.90;;;;;;6227253;22;20034;-96
2023/01/09 04:26:22;;;;;;;2.57;1.10;;;6.10;99.90;;;;;;6226775;22;20069;-96
2023/01/09 04:28:47;;;;;;;1.90;0.73;;;6.00;99.90;;;;;;6227655;22;20077;-94
2023/01/09 04:31:13;;;;;;;2.57;1.00;;;6.00;99.90;;;;;;6201912;22;20055;-96
2023/01/09 04:33:39;;;;;;;3.40;1.10;;;6.00;99.90;;;;;;6228353;22;20012;-96
2023/01/09 04:36:27;;;;;;;4.57;1.10;;;6.10;99.90;;;;;;6227386;22;20020;-95
2023/01/09 04:38:52;;;;;;;3.50;0.93;;;6.00;99.90;;;;;;6251312;22;20015;-90
2023/01/09 04:44:03;;;;;;;3.35;1.08;;;6.00;99.90;;;;;;6277629;22;20020;-96
2023/01/09 04:46:28;;;;;;;2.70;1.00;;;6.00;99.90;;;;;;6225766;22;20014;-96
2023/01/09 04:48:54;;;;;;;3.13;1.00;;;6.00;99.90;;;;;;6226017;22;20094;-94
2023/01/09 04:55:06;;;;;;;3.70;0.85;;;5.90;99.90;;;;;;6251045;22;20027;-94
2023/01/09 04:57:33;;;;;;;2.78;1.10;;;5.90;99.90;;;;;;6251221;22;20022;-94
2023/01/09 04:59:58;;;;;;;5.32;1.30;;;5.90;99.90;;;;;;6225183;22;20078;-95
2023/01/09 05:02:24;;;;;;;3.40;1.00;;;5.90;99.90;;;;;;6225202;22;20095;-96
2023/01/09 05:04:50;;;;;;;3.10;1.00;;;5.90;99.90;;;;;;6225869;22;20050;-95
2023/01/09 05:07:16;;;;;;;4.20;1.50;;;5.90;99.90;;;;;;6225281;22;20073;-93
2023/01/09 05:09:42;;;;;;;3.60;1.30;;;5.80;99.90;;;;;;6200053;22;20019;-95
2023/01/09 05:12:08;;;;;;;5.90;1.45;;;5.80;99.90;;;;;;6225227;22;20452;-95
2023/01/09 05:14:54;;;;;;;5.63;1.50;;;5.80;99.90;;;;;;6225734;22;20109;-96
2023/01/09 05:17:19;;;;;;;3.72;1.33;;;5.80;99.90;;;;;;6250410;22;20049;-94
2023/01/09 05:19:45;;;;;;;3.20;1.43;;;5.80;99.90;;;;;;6200531;22;20047;-94
2023/01/09 05:22:12;;;;;;;2.87;1.17;;;5.80;99.90;;;;;;6225259;22;20471;-92
2023/01/09 05:24:38;;;;;;;3.20;1.17;;;5.80;99.90;;;;;;6225342;22;20060;-96
2023/01/09 05:27:03;;;;;;;7.40;1.73;;;5.80;99.90;;;;;;6225377;22;20020;-94
2023/01/09 05:29:29;;;;;;;6.50;1.90;;;5.70;99.90;;;;;;6250199;22;20008;-95
2023/01/09 05:31:55;;;;;;;4.17;1.87;;;5.70;99.90;;;;;;6200373;22;20146;-87
2023/01/09 05:34:21;;;;;;;6.37;2.27;;;5.70;99.90;;;;;;6225527;22;20161;-92
2023/01/09 05:36:47;;;;;;;7.22;2.22;;;5.70;99.90;;;;;;6251655;22;20022;-88
2023/01/09 05:39:13;;;;;;;6.60;2.40;;;5.70;99.90;;;;;;6225665;22;20099;-93
2023/01/09 05:41:39;;;;;;;5.17;2.13;;;5.70;99.90;;;;;;6250374;22;20098;-94
2023/01/09 05:44:04;;;;;;;6.40;2.53;;;5.70;99.90;;;;;;6199980;22;20020;-93
2023/01/09 05:46:31;;;;;;;4.90;2.00;;;5.60;99.90;;;;;;6225158;22;20019;-96
2023/01/09 05:48:57;;;;;;;7.20;2.65;;;5.60;99.90;;;;;;6277156;22;20020;-91
2023/01/09 05:51:23;;;;;;;5.70;2.80;;;5.60;99.90;;;;;;6277097;22;20019;-94
2023/01/09 05:53:48;;;;;;;7.30;2.90;;;5.70;99.90;;;;;;6224977;22;20077;-95
2023/01/09 05:56:14;;;;;;;8.17;2.73;;;5.70;99.90;;;;;;6250375;22;20050;-93
2023/01/09 05:58:40;;;;;;;7.63;3.10;;;5.70;99.90;;;;;;6225088;22;20061;-86
2023/01/09 06:01:06;;;;;;;7.57;3.07;;;5.70;99.90;;;;;;6249854;22;20103;-95
2023/01/09 06:03:33;;;;;;;5.80;2.63;;;5.70;99.90;;;;;;6276953;22;20016;-87
2023/01/09 06:05:58;;;;;;;8.25;3.35;;;5.70;99.90;;;;;;6249965;22;20012;-93
2023/01/09 06:08:24;;;;;;;9.67;3.47;;;5.80;99.90;;;;;;6225037;22;20020;-93
2023/01/09 06:10:50;;;;;;;10.27;4.07;;;5.80;99.90;;;;;;6250436;22;20016;-96
2023/01/09 06:13:15;;;;;;;8.07;3.60;;;5.80;99.90;;;;;;6251606;22;20023;-96
2023/01/09 06:15:41;;;;;;;9.37;3.57;;;5.80;99.90;;;;;;6200407;22;20027;-95
2023/01/09 06:18:07;;;;;;;9.93;3.97;;;5.90;99.90;;;;;;6276626;22;20051;-91
2023/01/09 06:20:33;;;;;;;7.20;3.77;;;5.90;99.90;;;;;;6249890;22;20012;-86
2023/01/09 06:22:59;;;;;;;10.68;4.25;;;5.90;99.90;;;;;;6276826;22;20061;-87
2023/01/09 06:25:25;;;;;;;8.80;3.70;;;5.90;99.90;;;;;;6250126;22;20398;-96
2023/01/09 06:27:51;;;;;;;10.37;4.30;;;5.90;99.90;;;;;;6249804;22;20016;-92
2023/01/09 06:30:17;;;;;;;8.43;4.40;;;6.00;99.90;;;;;;6276504;22;20027;-95
2023/01/09 06:32:43;;;;;;;;;;;6.00;99.90;;;;;;6278179;22;20083;-93
2023/01/09 06:35:12;;;;;;;10.75;5.20;;;6.00;99.90;;;;;;6252684;22;19915;-96
2023/01/09 06:37:38;;;;;;;9.32;4.30;;;6.00;99.90;;;;;;6267152;22;20015;-96
2023/01/09 06:40:05;;;;;;;11.17;5.17;;;6.00;99.90;;;;;;6202939;22;20031;-96
2023/01/09 06:42:30;;;;;;;9.30;5.18;;;6.00;99.90;;;;;;6228870;22;20020;-90
2023/01/09 06:44:56;;;;;;;13.50;5.47;;;6.10;99.90;;;;;;6228013;22;20073;-89
2023/01/09 06:47:22;;;;;;;8.70;4.10;;;6.10;99.90;;;;;;6226436;22;20073;-94
2023/01/09 06:49:48;;;;;;;10.30;4.60;;;6.10;99.90;;;;;;6226118;22;20070;-93
2023/01/09 06:52:13;;;;;;;11.53;4.57;;;6.10;99.90;;;;;;6227217;22;20168;-96
2023/01/09 06:54:39;;;;;;;11.33;5.33;;;6.10;99.90;;;;;;6201488;22;20122;-92
2023/01/09 06:57:05;;;;;;;12.17;5.73;;;6.10;99.90;;;;;;6251845;22;20018;-94
2023/01/09 06:59:31;;;;;;;11.80;4.73;;;6.10;99.90;;;;;;6251047;22;20026;-92
2023/01/09 07:01:57;;;;;;;7.77;4.20;;;6.10;99.90;;;;;;6226335;22;20019;-91
2023/01/09 07:04:22;;;;;;;10.27;4.83;;;6.10;99.90;;;;;;6251561;22;20445;-92
2023/01/09 07:06:51;;;;;;;9.30;4.73;;;6.20;99.90;;;;;;6252870;22;20409;-88
2023/01/09 07:09:17;;;;;;;11.95;4.65;;;6.10;99.90;;;;;;6230013;22;20023;-92
2023/01/09 07:11:42;;;;;;;9.33;4.60;;;6.10;99.90;;;;;;6278366;22;20019;-95
2023/01/09 07:14:08;;;;;;;12.87;4.57;;;6.10;99.90;;;;;;6251037;22;20015;-89
2023/01/09 07:16:34;;;;;;;9.87;5.00;;;6.10;99.90;;;;;;6225918;22;20058;-92
2023/01/09 07:18:59;;;;;;;9.37;4.37;;;6.20;99.90;;;;;;6225957;22;20064;-87
2023/01/09 07:21:26;;;;;;;8.03;3.97;;;6.10;99.90;;;;;;6251146;22;20044;-91
2023/01/09 07:23:52;;;;;;;10.75;4.72;;;6.10;99.90;;;;;;6226162;22;20088;-91
2023/01/09 07:26:18;;;;;;;8.13;3.70;;;6.10;99.90;;;;;;6202311;22;20433;-90
2023/01/09 07:28:43;;;;;;;9.87;4.97;;;6.10;99.90;;;;;;6226464;22;20102;-95
2023/01/09 07:31:09;;;;;;;9.33;3.90;;;6.10;99.90;;;;;;6202057;22;20014;-90
2023/01/09 07:33:35;;;;;;;8.77;4.37;;;6.10;99.90;;;;;;6227477;22;20019;-94
2023/01/09 07:36:01;;;;;;;8.93;4.80;;;6.10;99.90;;;;;;6227946;22;20023;-91
2023/01/09 07:38:30;;;;;;;8.27;4.40;;;6.10;99.90;;;;;;6226502;22;20459;-95
2023/01/09 07:46:07;;;;;;;8.70;4.28;;;6.10;99.90;;;;;;6308391;22;20023;-89
2023/01/09 07:48:33;;;;;;;10.00;4.40;;;6.10;99.90;;;;;;6275916;22;20034;-92
2023/01/09 07:50:59;;;;;;;8.13;3.90;;;6.10;99.90;;;;;;6225653;22;20020;-89
2023/01/09 07:53:24;;;;;;;7.77;4.03;;;6.10;99.90;;;;;;6225388;22;20015;-91
2023/01/09 07:56:00;;;;;;;;;;;;;;;;;;;;;
2023/01/09 08:09:12;;;;;;;10.65;3.53;;;6.10;99.90;;;;;;6277387;22;20027;-93
2023/01/09 12:49:16;;;;;;;3.92;1.60;;;7.10;99.90;;;;;;6307318;22;20019;-96
2023/01/09 12:51:52;;;;;;;4.63;1.80;;;7.10;99.90;;;;;;6255311;22;20333;-95
